createdAt,value
2022-10-17T00:01:15.727Z,10.11
2022-10-17T00:06:42.983Z,10.07
2022-10-17T00:11:51.251Z,10.08
2022-10-17T00:16:58.389Z,10.09
2022-10-17T00:22:05.478Z,9.97
2022-10-17T00:27:12.649Z,9.83
2022-10-17T00:32:21.500Z,9.68
2022-10-17T00:37:29.214Z,9.58
2022-10-17T00:42:36.616Z,9.43
2022-10-17T00:47:46.046Z,9.31
2022-10-17T00:52:55.926Z,9.35
2022-10-17T00:58:06.206Z,9.38
2022-10-17T01:03:13.930Z,9.28
2022-10-17T01:08:23.676Z,9.17
2022-10-17T01:13:36.149Z,9.20
2022-10-17T01:18:52.823Z,9.20
2022-10-17T01:24:43.177Z,9.16
2022-10-17T01:30:21.148Z,9.08
2022-10-17T01:35:34.190Z,9.02
2022-10-17T01:40:48.354Z,9.02
2022-10-17T01:46:02.773Z,9.08
2022-10-17T01:51:17.127Z,9.13
2022-10-17T01:56:29.835Z,9.13
2022-10-17T02:01:39.524Z,9.07
2022-10-17T02:06:46.577Z,9.03
2022-10-17T02:12:12.353Z,8.98
2022-10-17T02:17:29.267Z,8.98
2022-10-17T02:22:44.238Z,9.07
2022-10-17T02:28:00.502Z,9.14
2022-10-17T02:33:12.265Z,9.05
2022-10-17T02:40:52.004Z,9.06
2022-10-17T02:45:59.642Z,9.06
2022-10-17T02:51:13.471Z,9.02
2022-10-17T02:56:22.936Z,8.99
2022-10-17T03:01:32.033Z,8.93
2022-10-17T03:06:40.160Z,8.92
2022-10-17T03:11:48.027Z,8.96
2022-10-17T03:16:55.845Z,8.97
2022-10-17T03:22:02.774Z,8.97
2022-10-17T03:27:08.281Z,8.96
2022-10-17T03:32:15.931Z,8.79
2022-10-17T03:37:24.157Z,8.70
2022-10-17T03:42:32.898Z,8.70
2022-10-17T03:47:40.493Z,8.68
2022-10-17T03:52:52.367Z,8.60
2022-10-17T03:58:00.114Z,8.49
2022-10-17T04:03:08.199Z,8.50
2022-10-17T04:08:15.814Z,8.65
2022-10-17T04:13:22.833Z,8.67
2022-10-17T04:18:28.329Z,8.59
2022-10-17T04:23:36.915Z,8.58
2022-10-17T04:28:44.207Z,8.50
2022-10-17T04:33:52.679Z,8.40
2022-10-17T04:39:01.963Z,8.30
2022-10-17T04:44:09.974Z,8.24
2022-10-17T04:49:17.513Z,8.18
2022-10-17T04:54:26.626Z,8.16
2022-10-17T04:59:33.701Z,8.15
2022-10-17T05:04:39.113Z,8.13
2022-10-17T05:09:46.400Z,8.02
2022-10-17T05:14:54.156Z,7.98
2022-10-17T05:20:01.070Z,8.02
2022-10-17T05:25:09.615Z,8.04
2022-10-17T05:30:17.083Z,8.11
2022-10-17T05:41:05.262Z,8.45
2022-10-17T05:46:13.298Z,8.53
2022-10-17T05:51:21.347Z,8.47
2022-10-17T05:56:28.470Z,8.52
2022-10-17T06:01:36.492Z,8.56
2022-10-17T06:06:43.736Z,8.61
2022-10-17T06:11:51.645Z,8.68
2022-10-17T06:16:59.412Z,8.69
2022-10-17T06:22:06.437Z,8.76
2022-10-17T06:27:12.327Z,8.90
2022-10-17T06:32:20.615Z,9.09
2022-10-17T06:37:29.226Z,9.28
2022-10-17T06:42:39.740Z,9.43
2022-10-17T06:47:47.133Z,9.59
2022-10-17T06:52:55.876Z,9.80
2022-10-17T06:58:03.077Z,10.00
2022-10-17T07:03:11.020Z,10.22
2022-10-17T07:18:13.167Z,10.82
2022-10-17T07:23:21.865Z,11.03
2022-10-17T07:28:29.825Z,11.28
2022-10-17T07:33:37.548Z,11.53
2022-10-17T07:38:45.843Z,11.82
2022-10-17T07:43:53.378Z,12.09
2022-10-17T07:49:00.887Z,12.37
2022-10-17T07:54:10.060Z,12.62
2022-10-17T07:59:17.799Z,12.85
2022-10-17T08:04:25.415Z,13.09
2022-10-17T08:09:32.842Z,13.31
2022-10-17T08:14:41.713Z,13.55
2022-10-17T08:19:49.851Z,13.77
2022-10-17T08:24:56.969Z,13.95
2022-10-17T08:30:04.689Z,14.12
2022-10-17T08:35:15.060Z,14.30
2022-10-17T08:40:26.456Z,14.48
2022-10-17T08:45:37.614Z,14.67
2022-10-17T08:50:51.048Z,14.89
2022-10-17T08:56:04.578Z,15.14
2022-10-17T09:01:27.415Z,15.32
2022-10-17T09:06:39.060Z,15.50
2022-10-17T09:11:58.721Z,15.64
2022-10-17T09:17:17.698Z,15.79
2022-10-17T09:22:30.424Z,15.96
2022-10-17T09:27:44.684Z,16.12
2022-10-17T09:32:54.656Z,16.26
2022-10-17T09:38:02.686Z,16.45
2022-10-17T09:55:31.973Z,17.07
2022-10-17T10:00:38.435Z,17.21
2022-10-17T10:05:44.023Z,17.35
2022-10-17T10:10:57.519Z,17.48
2022-10-17T10:16:24.167Z,17.65
2022-10-17T10:21:28.652Z,17.81
2022-10-17T10:26:39.338Z,17.95
2022-10-17T10:31:43.956Z,18.10
2022-10-17T10:36:53.542Z,18.23
2022-10-17T10:41:57.556Z,18.36
2022-10-17T10:47:20.618Z,18.48
2022-10-17T10:52:41.060Z,18.59
2022-10-17T10:57:48.692Z,18.71
2022-10-17T11:03:02.025Z,18.81
2022-10-17T11:08:18.382Z,18.91
2022-10-17T11:13:28.413Z,19.05
2022-10-17T11:18:39.907Z,19.16
2022-10-17T11:23:47.751Z,19.28
2022-10-17T11:28:53.102Z,19.37
2022-10-17T11:34:00.322Z,19.45
2022-10-17T11:39:08.870Z,19.53
2022-10-17T11:44:20.296Z,19.64
2022-10-17T11:49:28.992Z,19.73
2022-10-17T11:54:37.935Z,19.81
2022-10-17T12:00:05.602Z,19.91
2022-10-17T12:05:25.654Z,19.99
2022-10-17T12:10:40.383Z,20.08
2022-10-17T12:15:46.621Z,20.16
2022-10-17T12:20:59.038Z,20.23
2022-10-17T12:26:05.770Z,20.29
2022-10-17T12:31:22.727Z,20.35
2022-10-17T12:36:50.034Z,20.40
2022-10-17T12:41:58.127Z,20.51
2022-10-17T12:47:29.092Z,20.58
2022-10-17T12:52:58.406Z,20.68
2022-10-17T12:58:07.889Z,20.74
2022-10-17T13:03:17.262Z,20.77
2022-10-17T13:08:24.886Z,20.83
2022-10-17T13:13:47.112Z,20.92
2022-10-17T13:18:54.481Z,21.00
2022-10-17T13:23:58.930Z,21.08
2022-10-17T13:29:05.612Z,21.17
2022-10-17T13:34:19.658Z,21.26
2022-10-17T13:39:44.878Z,21.31
2022-10-17T13:44:51.496Z,21.36
2022-10-17T13:49:57.868Z,21.36
2022-10-17T13:55:16.813Z,21.34
2022-10-17T14:00:23.356Z,21.33
2022-10-17T14:05:28.804Z,21.31
2022-10-17T14:10:36.276Z,21.31
2022-10-17T14:15:46.406Z,21.28
2022-10-17T14:26:20.783Z,21.19
2022-10-17T14:31:30.008Z,21.14
2022-10-17T14:36:37.491Z,21.09
2022-10-17T14:41:46.010Z,21.03
2022-10-17T14:46:56.375Z,20.98
2022-10-17T14:52:28.996Z,20.92
2022-10-17T14:57:43.536Z,20.85
2022-10-17T15:02:49.690Z,20.79
2022-10-17T15:07:55.325Z,20.70
2022-10-17T15:13:26.071Z,20.60
2022-10-17T15:18:24.737Z,20.45
2022-10-17T15:23:28.455Z,20.27
2022-10-17T15:28:32.160Z,20.05
2022-10-17T15:33:36.302Z,19.82
2022-10-17T15:38:40.546Z,19.53
2022-10-17T15:43:44.554Z,19.30
2022-10-17T15:48:49.563Z,19.09
2022-10-17T15:53:53.368Z,18.79
2022-10-17T15:58:58.364Z,18.59
2022-10-17T16:04:02.923Z,18.31
2022-10-17T16:09:06.963Z,17.97
2022-10-17T16:14:13.178Z,17.82
2022-10-17T16:19:17.597Z,17.71
2022-10-17T16:24:22.246Z,17.41
2022-10-17T16:29:26.638Z,17.17
2022-10-17T16:34:32.000Z,16.92
2022-10-17T16:39:36.153Z,16.69
2022-10-17T16:44:40.598Z,16.53
2022-10-17T16:49:45.557Z,16.34
2022-10-17T16:54:51.052Z,16.10
2022-10-17T16:59:55.092Z,15.88
2022-10-17T17:04:58.947Z,15.71
2022-10-17T17:10:04.051Z,15.56
2022-10-17T17:15:09.099Z,15.42
2022-10-17T17:20:14.458Z,15.27
2022-10-17T17:25:20.335Z,15.11
2022-10-17T17:30:23.931Z,14.94
2022-10-17T17:35:28.683Z,14.84
2022-10-17T17:40:34.366Z,14.74
2022-10-17T17:45:38.904Z,14.64
2022-10-17T17:50:44.191Z,14.52
2022-10-17T17:55:49.116Z,14.36
2022-10-17T18:00:53.368Z,14.25
2022-10-17T18:05:57.200Z,14.15
2022-10-17T18:11:01.488Z,14.06
2022-10-17T18:16:12.619Z,14.03
2022-10-17T18:21:16.651Z,13.99
2022-10-17T18:26:21.949Z,13.85
2022-10-17T18:31:28.062Z,13.66
2022-10-17T18:36:34.890Z,13.50
2022-10-17T18:41:38.497Z,13.40
2022-10-17T18:46:42.758Z,13.34
2022-10-17T18:51:47.807Z,13.39
2022-10-17T18:56:54.829Z,13.36
2022-10-17T19:01:58.575Z,13.23
2022-10-17T19:07:02.556Z,13.09
2022-10-17T19:12:06.994Z,12.93
2022-10-17T19:17:11.023Z,12.87
2022-10-17T19:22:15.418Z,12.79
2022-10-17T19:27:20.574Z,12.60
2022-10-17T19:32:24.583Z,12.46
2022-10-17T19:37:30.104Z,12.43
2022-10-17T19:42:34.932Z,12.46
2022-10-17T19:47:39.331Z,12.45
2022-10-17T19:52:43.062Z,12.39
2022-10-17T19:57:47.638Z,12.26
2022-10-17T20:02:52.468Z,12.16
2022-10-17T20:07:57.035Z,12.04
2022-10-17T20:13:00.963Z,11.92
2022-10-17T20:18:05.678Z,11.76
2022-10-17T20:23:09.395Z,11.67
2022-10-17T20:28:13.326Z,11.67
2022-10-17T20:33:18.193Z,11.67
2022-10-17T20:38:22.338Z,11.62
2022-10-17T20:43:26.880Z,11.56
2022-10-17T20:48:31.378Z,11.58
2022-10-17T20:53:37.582Z,11.61
2022-10-17T20:58:41.892Z,11.60
2022-10-17T21:03:46.703Z,11.52
2022-10-17T21:08:54.187Z,11.43
2022-10-17T21:14:00.431Z,11.18
2022-10-17T21:19:05.673Z,10.93
2022-10-17T21:24:13.925Z,10.82
2022-10-17T21:29:19.673Z,10.76
2022-10-17T21:34:24.444Z,10.72
2022-10-17T21:39:28.032Z,10.64
2022-10-17T21:44:32.332Z,10.63
2022-10-17T21:49:37.740Z,10.52
2022-10-17T21:54:41.620Z,10.38
2022-10-17T21:59:45.994Z,10.30
2022-10-17T22:04:50.393Z,10.29
2022-10-17T22:09:55.406Z,10.30
2022-10-17T22:14:59.599Z,10.28
2022-10-17T22:20:03.848Z,10.28
2022-10-17T22:25:10.305Z,10.27
2022-10-17T22:30:15.664Z,10.25
2022-10-17T22:35:19.850Z,10.23
2022-10-17T22:40:23.567Z,10.21
2022-10-17T22:45:27.097Z,10.11
2022-10-17T22:50:30.833Z,9.98
2022-10-17T22:55:35.022Z,9.81
2022-10-17T23:00:39.725Z,9.72
2022-10-17T23:05:43.636Z,9.67
2022-10-17T23:10:48.868Z,9.61
2022-10-17T23:15:54.161Z,9.60
2022-10-17T23:20:57.757Z,9.56
2022-10-17T23:26:10.318Z,9.59
2022-10-17T23:31:17.344Z,9.59
2022-10-17T23:40:55.985Z,9.47
2022-10-17T23:46:03.768Z,9.41
2022-10-17T23:51:12.075Z,9.31
2022-10-17T23:56:19.712Z,9.20
